createdAt,value
2019-02-26T00:01:55.152Z,13.55
2019-02-26T00:04:27.313Z,14.58
2019-02-26T00:06:58.609Z,15.13
2019-02-26T00:09:30.604Z,16.77
2019-02-26T00:12:01.940Z,14.30
2019-02-26T00:14:32.259Z,14.25
2019-02-26T00:17:06.018Z,15.93
2019-02-26T00:19:34.654Z,13.50
2019-02-26T00:22:07.772Z,12.88
2019-02-26T00:24:39.748Z,12.53
2019-02-26T00:27:10.900Z,19.50
2019-02-26T00:29:41.194Z,12.70
2019-02-26T00:32:13.511Z,17.15
2019-02-26T00:34:43.563Z,19.73
2019-02-26T00:37:13.882Z,16.48
2019-02-26T00:39:45.323Z,15.65
2019-02-26T00:42:19.538Z,16.12
2019-02-26T00:44:51.358Z,14.45
2019-02-26T00:47:20.319Z,13.85
2019-02-26T00:49:51.784Z,12.63
2019-02-26T00:52:22.684Z,14.70
2019-02-26T00:54:53.686Z,13.38
2019-02-26T00:57:27.184Z,17.82
2019-02-26T00:59:57.090Z,16.10
2019-02-26T01:02:27.417Z,16.48
2019-02-26T01:04:57.747Z,14.00
2019-02-26T01:07:30.282Z,14.03
2019-02-26T01:10:01.328Z,13.05
2019-02-26T01:12:33.036Z,15.50
2019-02-26T01:15:05.422Z,15.43
2019-02-26T01:17:38.365Z,14.55
2019-02-26T01:20:13.124Z,13.20
2019-02-26T01:22:45.401Z,14.30
2019-02-26T01:25:17.892Z,14.07
2019-02-26T01:27:51.101Z,14.38
2019-02-26T01:30:23.609Z,14.50
2019-02-26T01:32:53.862Z,13.90
2019-02-26T01:35:26.168Z,16.23
2019-02-26T01:37:59.876Z,16.57
2019-02-26T01:40:28.920Z,16.27
2019-02-26T01:43:01.123Z,14.23
2019-02-26T01:45:32.638Z,16.55
2019-02-26T01:48:04.016Z,17.95
2019-02-26T01:50:35.647Z,16.65
2019-02-26T01:53:07.054Z,19.07
2019-02-26T01:55:39.319Z,21.77
2019-02-26T01:58:09.430Z,22.58
2019-02-26T02:00:40.806Z,20.43
2019-02-26T02:03:11.595Z,28.67
2019-02-26T02:05:43.267Z,20.77
2019-02-26T02:08:15.484Z,17.73
2019-02-26T02:10:46.439Z,18.42
2019-02-26T02:13:16.782Z,17.70
2019-02-26T02:15:48.197Z,19.50
2019-02-26T02:18:20.568Z,19.07
2019-02-26T02:20:50.573Z,18.87
2019-02-26T02:23:21.859Z,21.37
2019-02-26T02:25:52.950Z,19.80
2019-02-26T02:28:23.882Z,17.60
2019-02-26T02:30:55.314Z,25.37
2019-02-26T02:33:27.530Z,19.37
2019-02-26T02:35:57.693Z,21.55
2019-02-26T02:38:28.055Z,17.07
2019-02-26T02:40:58.381Z,19.30
2019-02-26T02:43:28.812Z,20.55
2019-02-26T02:46:01.329Z,18.82
2019-02-26T02:48:31.190Z,24.07
2019-02-26T02:51:20.866Z,19.48
2019-02-26T02:53:54.093Z,21.30
2019-02-26T02:56:25.076Z,20.27
2019-02-26T02:58:55.763Z,22.82
2019-02-26T03:01:28.564Z,17.27
2019-02-26T03:03:59.013Z,19.32
2019-02-26T03:06:32.391Z,17.80
2019-02-26T03:09:02.231Z,20.30
2019-02-26T03:11:38.635Z,19.67
2019-02-26T03:14:08.226Z,20.12
2019-02-26T03:16:39.954Z,21.40
2019-02-26T03:19:12.200Z,17.77
2019-02-26T03:21:44.636Z,18.97
2019-02-26T03:24:14.347Z,20.80
2019-02-26T03:26:44.694Z,18.75
2019-02-26T03:29:15.026Z,16.82
2019-02-26T03:31:49.115Z,19.57
2019-02-26T03:34:21.777Z,19.37
2019-02-26T03:36:49.435Z,19.42
2019-02-26T03:39:19.772Z,22.35
2019-02-26T03:41:51.069Z,23.35
2019-02-26T03:44:22.148Z,19.90
2019-02-26T03:46:52.487Z,18.62
2019-02-26T03:49:26.337Z,16.90
2019-02-26T03:51:59.118Z,25.68
2019-02-26T03:54:27.184Z,19.98
2019-02-26T03:56:57.590Z,18.65
2019-02-26T03:59:27.931Z,19.57
2019-02-26T04:01:58.411Z,20.60
2019-02-26T04:04:30.953Z,20.80
2019-02-26T04:07:04.121Z,21.07
2019-02-26T04:09:33.983Z,28.07
2019-02-26T04:12:04.328Z,22.40
2019-02-26T04:14:34.666Z,20.00
2019-02-26T04:17:06.452Z,22.03
2019-02-26T04:19:37.044Z,20.17
2019-02-26T04:22:49.766Z,23.50
2019-02-26T04:25:37.514Z,18.87
2019-02-26T04:28:32.996Z,20.73
2019-02-26T04:31:11.489Z,19.00
2019-02-26T04:34:06.203Z,19.57
2019-02-26T04:37:24.769Z,21.85
2019-02-26T04:40:10.168Z,20.32
2019-02-26T04:43:07.227Z,21.20
2019-02-26T04:45:57.297Z,22.52
2019-02-26T04:48:34.435Z,22.73
2019-02-26T04:51:04.770Z,22.65
2019-02-26T04:53:36.443Z,19.50
2019-02-26T04:56:12.815Z,22.27
2019-02-26T04:58:42.464Z,20.60
2019-02-26T05:01:15.376Z,21.97
2019-02-26T05:03:45.005Z,23.10
2019-02-26T05:06:15.340Z,22.03
2019-02-26T05:08:45.673Z,22.83
2019-02-26T05:11:30.736Z,21.83
2019-02-26T05:13:48.073Z,19.37
2019-02-26T05:16:18.409Z,19.57
2019-02-26T05:18:49.624Z,19.73
2019-02-26T05:21:20.795Z,21.13
2019-02-26T05:23:52.395Z,21.37
2019-02-26T05:26:23.273Z,21.97
2019-02-26T05:28:53.632Z,21.43
2019-02-26T05:31:23.962Z,21.07
2019-02-26T05:33:55.390Z,21.97
2019-02-26T05:36:28.236Z,22.50
2019-02-26T05:39:00.363Z,21.25
2019-02-26T05:41:30.424Z,21.17
2019-02-26T05:44:01.871Z,22.48
2019-02-26T05:46:32.848Z,23.37
2019-02-26T05:49:05.551Z,20.45
2019-02-26T05:51:36.068Z,21.27
2019-02-26T05:54:08.051Z,22.40
2019-02-26T05:56:41.264Z,22.07
2019-02-26T05:59:15.105Z,21.07
2019-02-26T06:02:03.405Z,23.17
2019-02-26T06:04:35.193Z,24.37
2019-02-26T06:07:05.798Z,26.40
2019-02-26T06:09:36.216Z,24.32
2019-02-26T06:12:06.554Z,24.52
2019-02-26T06:14:39.222Z,18.83
2019-02-26T06:17:10.663Z,23.27
2019-02-26T06:20:17.829Z,21.57
2019-02-26T06:22:48.160Z,24.12
2019-02-26T06:25:23.632Z,27.00
2019-02-26T06:27:50.546Z,23.10
2019-02-26T06:30:20.889Z,23.10
2019-02-26T06:32:51.237Z,24.57
2019-02-26T06:35:21.579Z,23.73
2019-02-26T06:37:51.917Z,23.57
2019-02-26T06:40:22.263Z,19.43
2019-02-26T06:42:52.612Z,19.53
2019-02-26T06:45:22.962Z,21.67
2019-02-26T06:47:54.588Z,19.70
2019-02-26T06:50:25.332Z,25.13
2019-02-26T06:52:55.681Z,26.10
2019-02-26T06:55:26.022Z,27.90
2019-02-26T06:58:18.211Z,23.25
2019-02-26T07:00:52.099Z,23.20
2019-02-26T07:03:24.169Z,20.50
2019-02-26T07:05:52.615Z,22.95
2019-02-26T07:08:24.171Z,22.15
2019-02-26T07:10:54.995Z,24.30
2019-02-26T07:13:25.347Z,23.18
2019-02-26T07:15:55.683Z,20.80
2019-02-26T07:18:26.065Z,23.73
2019-02-26T07:20:58.226Z,19.05
2019-02-26T07:23:29.788Z,23.60
2019-02-26T07:26:00.793Z,20.60
2019-02-26T07:28:31.134Z,22.02
2019-02-26T07:31:02.684Z,21.77
2019-02-26T07:33:35.129Z,31.60
2019-02-26T07:36:06.572Z,29.00
2019-02-26T07:38:41.269Z,22.27
2019-02-26T07:41:09.027Z,20.62
2019-02-26T07:43:43.481Z,26.62
2019-02-26T07:46:14.478Z,25.27
2019-02-26T07:48:46.154Z,26.15
2019-02-26T07:51:16.454Z,34.65
2019-02-26T07:53:50.589Z,29.50
2019-02-26T07:56:20.667Z,34.03
2019-02-26T07:58:50.873Z,28.10
2019-02-26T08:01:21.256Z,30.75
2019-02-26T08:03:53.275Z,28.20
2019-02-26T08:06:23.714Z,30.72
2019-02-26T08:08:54.053Z,24.70
2019-02-26T08:11:24.399Z,28.05
2019-02-26T08:13:56.755Z,18.80
2019-02-26T08:16:27.726Z,20.30
2019-02-26T08:19:01.425Z,17.75
2019-02-26T08:21:31.903Z,20.00
2019-02-26T08:24:02.234Z,19.12
2019-02-26T08:26:32.647Z,15.90
2019-02-26T08:29:05.750Z,18.80
2019-02-26T08:31:36.726Z,18.85
2019-02-26T08:34:07.073Z,19.15
2019-02-26T08:36:37.424Z,20.85
2019-02-26T08:39:08.272Z,17.87
2019-02-26T08:41:39.888Z,21.45
2019-02-26T08:44:10.290Z,18.10
2019-02-26T08:46:42.698Z,19.20
2019-02-26T08:49:15.156Z,21.80
2019-02-26T08:51:45.263Z,22.40
2019-02-26T08:54:20.922Z,20.20
2019-02-26T08:56:47.652Z,21.90
2019-02-26T08:59:20.031Z,20.92
2019-02-26T09:01:50.032Z,20.80
2019-02-26T09:04:23.928Z,23.27
2019-02-26T09:06:55.415Z,21.77
2019-02-26T09:09:27.818Z,19.67
2019-02-26T09:12:00.612Z,18.85
2019-02-26T09:14:34.471Z,20.45
2019-02-26T09:17:05.485Z,17.57
2019-02-26T09:19:38.107Z,22.37
2019-02-26T09:22:11.785Z,19.80
2019-02-26T09:24:40.995Z,16.23
2019-02-26T09:27:11.342Z,18.17
2019-02-26T09:29:48.236Z,15.95
2019-02-26T09:32:15.753Z,19.25
2019-02-26T09:34:45.786Z,19.07
2019-02-26T09:37:16.200Z,19.52
2019-02-26T09:39:46.560Z,21.27
2019-02-26T09:42:16.911Z,19.42
2019-02-26T09:44:48.226Z,19.60
2019-02-26T09:47:21.689Z,18.42
2019-02-26T09:49:53.837Z,19.25
2019-02-26T09:52:27.602Z,20.82
2019-02-26T09:54:57.100Z,24.65
2019-02-26T09:57:28.241Z,20.00
2019-02-26T10:00:00.249Z,21.30
2019-02-26T10:02:30.708Z,19.92
2019-02-26T10:05:01.061Z,19.77
2019-02-26T10:07:35.557Z,19.90
2019-02-26T10:10:06.525Z,20.35
2019-02-26T10:12:37.454Z,20.15
2019-02-26T10:15:15.060Z,18.65
2019-02-26T10:17:45.446Z,20.27
2019-02-26T10:20:29.542Z,21.02
2019-02-26T10:23:01.243Z,20.10
2019-02-26T10:25:32.064Z,20.35
2019-02-26T10:28:08.714Z,18.75
2019-02-26T10:30:38.998Z,18.40
2019-02-26T10:33:08.899Z,18.57
2019-02-26T10:35:42.028Z,18.05
2019-02-26T10:38:11.743Z,17.60
2019-02-26T10:40:53.341Z,22.17
2019-02-26T10:43:14.324Z,16.75
2019-02-26T10:45:47.289Z,20.17
2019-02-26T10:48:19.080Z,17.85
2019-02-26T10:50:49.688Z,18.20
2019-02-26T10:53:22.677Z,17.98
2019-02-26T10:55:52.923Z,17.65
2019-02-26T10:58:24.246Z,17.27
2019-02-26T11:00:55.762Z,16.55
2019-02-26T11:03:26.663Z,17.98
2019-02-26T11:05:57.012Z,19.37
2019-02-26T11:08:29.668Z,18.05
2019-02-26T11:10:59.419Z,16.82
2019-02-26T11:13:29.746Z,17.65
2019-02-26T11:16:03.060Z,19.05
2019-02-26T11:18:34.775Z,15.70
2019-02-26T11:21:05.517Z,15.83
2019-02-26T11:23:36.405Z,16.05
2019-02-26T11:26:10.690Z,16.25
2019-02-26T11:28:42.471Z,17.40
2019-02-26T11:31:14.132Z,18.15
2019-02-26T11:33:44.412Z,14.87
2019-02-26T11:36:15.744Z,18.00
2019-02-26T11:38:47.070Z,15.95
2019-02-26T11:41:17.426Z,15.38
2019-02-26T11:43:47.776Z,16.55
2019-02-26T11:46:20.191Z,16.07
2019-02-26T11:48:52.554Z,14.53
2019-02-26T11:51:23.196Z,12.75
2019-02-26T11:53:53.538Z,12.90
2019-02-26T11:56:25.688Z,14.68
2019-02-26T11:58:55.937Z,11.00
2019-02-26T12:01:27.000Z,11.68
2019-02-26T12:04:03.287Z,12.75
2019-02-26T12:06:29.790Z,9.63
2019-02-26T12:09:00.126Z,10.95
2019-02-26T12:11:30.550Z,9.78
2019-02-26T12:14:00.886Z,10.68
2019-02-26T12:16:31.313Z,7.10
2019-02-26T12:19:03.540Z,10.53
2019-02-26T12:21:34.662Z,11.43
2019-02-26T12:24:06.702Z,13.45
2019-02-26T12:26:37.870Z,13.10
2019-02-26T12:29:08.219Z,10.08
2019-02-26T12:31:39.148Z,19.95
2019-02-26T12:34:11.879Z,7.60
2019-02-26T12:36:41.543Z,8.78
2019-02-26T12:39:11.887Z,7.47
2019-02-26T12:41:45.332Z,7.40
2019-02-26T12:44:16.132Z,5.67
2019-02-26T12:46:47.807Z,6.83
2019-02-26T12:49:21.260Z,4.70
2019-02-26T12:51:53.458Z,6.75
2019-02-26T12:54:22.412Z,5.28
2019-02-26T12:56:55.027Z,5.30
2019-02-26T12:59:25.864Z,5.17
2019-02-26T13:01:56.211Z,4.55
2019-02-26T13:04:26.557Z,6.05
2019-02-26T13:06:56.907Z,5.60
2019-02-26T13:09:27.237Z,6.03
2019-02-26T13:14:29.921Z,6.10
2019-02-26T13:17:00.291Z,7.47
2019-02-26T13:19:33.441Z,6.05
2019-02-26T13:22:06.700Z,6.15
2019-02-26T13:24:34.709Z,7.03
2019-02-26T13:27:05.509Z,6.42
2019-02-26T13:29:35.847Z,6.33
2019-02-26T13:32:08.008Z,8.25
2019-02-26T13:34:38.531Z,4.83
2019-02-26T13:37:08.866Z,4.55
2019-02-26T13:39:41.540Z,5.17
2019-02-26T13:42:14.070Z,5.35
2019-02-26T13:44:43.818Z,4.33
2019-02-26T13:47:14.185Z,5.03
2019-02-26T13:49:44.527Z,5.03
2019-02-26T13:52:14.998Z,6.25
2019-02-26T13:54:45.327Z,6.25
2019-02-26T13:57:17.687Z,8.40
2019-02-26T13:59:47.722Z,7.12
2019-02-26T14:02:18.076Z,10.30
2019-02-26T14:04:48.402Z,8.60
2019-02-26T14:07:18.797Z,9.23
2019-02-26T14:09:49.131Z,6.95
2019-02-26T14:12:19.554Z,7.28
2019-02-26T14:14:49.903Z,7.15
2019-02-26T14:17:20.267Z,7.25
2019-02-26T14:19:50.597Z,7.12
2019-02-26T14:22:21.235Z,7.20
2019-02-26T14:24:51.581Z,10.00
2019-02-26T14:27:21.975Z,9.03
2019-02-26T14:29:52.284Z,8.58
2019-02-26T14:32:22.636Z,7.28
2019-02-26T14:34:52.988Z,9.28
2019-02-26T14:37:23.344Z,7.33
2019-02-26T14:39:53.686Z,10.23
2019-02-26T14:42:24.031Z,10.98
2019-02-26T14:44:54.469Z,14.40
2019-02-26T14:47:24.800Z,11.63
2019-02-26T14:49:55.140Z,14.28
2019-02-26T14:52:25.496Z,14.85
2019-02-26T14:54:56.019Z,14.25
2019-02-26T14:57:26.364Z,14.87
2019-02-26T14:59:56.704Z,15.30
2019-02-26T15:02:27.046Z,13.22
2019-02-26T15:04:57.397Z,12.15
2019-02-26T15:07:27.752Z,10.50
2019-02-26T15:09:58.096Z,12.60
2019-02-26T15:12:28.446Z,8.63
2019-02-26T15:14:58.798Z,10.53
2019-02-26T15:17:29.254Z,11.90
2019-02-26T15:19:59.582Z,12.95
2019-02-26T15:22:29.956Z,13.25
2019-02-26T15:25:00.305Z,11.63
2019-02-26T15:27:36.927Z,11.93
2019-02-26T15:30:02.949Z,10.23
2019-02-26T15:32:34.672Z,13.38
2019-02-26T15:35:06.348Z,14.65
2019-02-26T15:37:36.734Z,15.15
2019-02-26T15:40:11.551Z,15.98
2019-02-26T15:42:42.241Z,15.08
2019-02-26T15:45:29.057Z,15.20
2019-02-26T15:48:03.703Z,13.25
2019-02-26T15:50:33.158Z,14.25
2019-02-26T15:53:03.506Z,12.45
2019-02-26T15:55:33.851Z,13.22
2019-02-26T15:58:06.703Z,11.38
2019-02-26T16:00:38.007Z,12.35
2019-02-26T16:03:08.308Z,13.03
2019-02-26T16:05:39.900Z,12.80
2019-02-26T16:08:10.350Z,13.03
2019-02-26T16:10:40.687Z,11.75
2019-02-26T16:13:11.068Z,11.95
2019-02-26T16:15:41.411Z,11.57
2019-02-26T16:18:11.770Z,10.35
2019-02-26T16:20:42.112Z,11.33
2019-02-26T16:23:12.471Z,10.15
2019-02-26T16:25:42.812Z,13.15
2019-02-26T16:28:13.167Z,11.40
2019-02-26T16:30:43.507Z,10.20
2019-02-26T16:33:14.466Z,12.63
2019-02-26T16:35:44.889Z,12.53
2019-02-26T16:38:15.579Z,13.05
2019-02-26T16:40:45.913Z,13.43
2019-02-26T16:43:35.603Z,10.85
2019-02-26T16:46:08.312Z,12.55
2019-02-26T16:48:38.071Z,12.95
2019-02-26T16:51:08.500Z,14.63
2019-02-26T16:53:38.851Z,10.13
2019-02-26T16:56:09.436Z,10.53
2019-02-26T16:58:39.863Z,12.35
2019-02-26T17:01:10.523Z,12.33
2019-02-26T17:03:40.875Z,9.38
2019-02-26T17:06:11.217Z,9.75
2019-02-26T17:08:41.584Z,11.57
2019-02-26T17:11:13.432Z,11.60
2019-02-26T17:13:44.204Z,13.32
2019-02-26T17:16:14.544Z,14.93
2019-02-26T17:18:44.954Z,14.68
2019-02-26T17:21:15.291Z,11.30
2019-02-26T17:23:47.084Z,13.88
2019-02-26T17:26:17.691Z,14.05
2019-02-26T17:28:48.049Z,11.40
2019-02-26T17:31:18.395Z,12.47
2019-02-26T17:33:48.764Z,13.15
2019-02-26T17:36:19.113Z,12.15
2019-02-26T17:38:51.494Z,11.97
2019-02-26T17:41:21.503Z,14.95
2019-02-26T17:43:51.845Z,13.10
2019-02-26T17:46:22.370Z,19.25
2019-02-26T17:48:53.787Z,12.23
2019-02-26T17:51:24.139Z,15.25
2019-02-26T17:53:54.478Z,14.60
2019-02-26T17:56:26.694Z,11.10
2019-02-26T17:58:56.882Z,20.75
2019-02-26T18:01:27.230Z,11.60
2019-02-26T18:03:57.571Z,19.67
2019-02-26T18:06:27.928Z,11.90
2019-02-26T18:08:58.262Z,13.70
2019-02-26T18:11:28.608Z,10.48
2019-02-26T18:14:00.220Z,17.98
2019-02-26T18:16:31.758Z,15.43
2019-02-26T18:19:03.336Z,10.90
2019-02-26T18:21:33.689Z,13.20
2019-02-26T18:24:04.092Z,18.45
2019-02-26T18:26:34.625Z,11.68
2019-02-26T18:29:05.035Z,13.35
2019-02-26T18:31:35.386Z,13.38
2019-02-26T18:34:05.807Z,14.33
2019-02-26T18:36:37.091Z,10.95
2019-02-26T18:39:23.060Z,10.18
2019-02-26T18:41:50.658Z,15.13
2019-02-26T18:44:17.822Z,12.13
2019-02-26T18:46:49.496Z,12.63
2019-02-26T18:49:21.828Z,13.70
2019-02-26T18:51:52.999Z,13.62
2019-02-26T18:54:24.210Z,11.22
2019-02-26T18:56:54.563Z,14.03
2019-02-26T18:59:24.906Z,14.38
2019-02-26T19:01:55.584Z,13.58
2019-02-26T19:04:25.915Z,16.30
2019-02-26T19:06:59.401Z,16.73
2019-02-26T19:09:28.293Z,11.50
2019-02-26T19:11:58.699Z,13.95
2019-02-26T19:14:29.053Z,12.60
2019-02-26T19:16:59.410Z,15.65
2019-02-26T19:19:29.737Z,14.83
2019-02-26T19:22:02.685Z,12.47
2019-02-26T19:24:35.648Z,15.63
2019-02-26T19:27:05.191Z,14.78
2019-02-26T19:29:35.531Z,14.60
2019-02-26T19:32:05.880Z,12.18
2019-02-26T19:34:36.219Z,15.63
2019-02-26T19:37:06.568Z,14.38
2019-02-26T19:39:36.901Z,14.75
2019-02-26T19:42:07.251Z,12.45
2019-02-26T19:44:37.583Z,12.73
2019-02-26T19:47:07.933Z,18.52
2019-02-26T19:49:39.685Z,15.23
2019-02-26T19:52:10.598Z,15.10
2019-02-26T19:54:42.033Z,12.47
2019-02-26T19:57:13.243Z,14.93
2019-02-26T19:59:46.874Z,14.33
2019-02-26T20:02:15.652Z,14.65
2019-02-26T20:04:46.016Z,13.58
2019-02-26T20:07:16.340Z,14.18
2019-02-26T20:09:46.679Z,15.03
2019-02-26T20:12:18.012Z,15.20
2019-02-26T20:14:49.558Z,15.32
2019-02-26T20:17:22.717Z,16.32
2019-02-26T20:19:54.057Z,20.57
2019-02-26T20:22:25.425Z,15.95
2019-02-26T20:24:55.805Z,16.23
2019-02-26T20:27:26.148Z,18.57
2019-02-26T20:29:57.552Z,17.77
2019-02-26T20:32:31.042Z,16.95
2019-02-26T20:35:01.900Z,15.58
2019-02-26T20:37:33.796Z,16.67
2019-02-26T20:40:06.234Z,14.23
2019-02-26T20:42:36.600Z,17.70
2019-02-26T20:45:11.705Z,16.90
2019-02-26T20:47:42.056Z,14.85
2019-02-26T20:50:13.516Z,14.73
2019-02-26T20:52:43.846Z,14.68
2019-02-26T20:55:27.099Z,14.60
2019-02-26T20:57:57.445Z,20.23
2019-02-26T21:00:48.277Z,22.25
2019-02-26T21:03:18.765Z,18.15
2019-02-26T21:05:49.098Z,16.77
2019-02-26T21:08:19.442Z,19.62
2019-02-26T21:10:49.870Z,17.77
2019-02-26T21:13:20.205Z,16.32
2019-02-26T21:15:51.618Z,18.32
2019-02-26T21:18:21.964Z,17.37
2019-02-26T21:20:52.294Z,20.17
2019-02-26T21:23:22.639Z,16.97
2019-02-26T21:25:52.979Z,15.65
2019-02-26T21:28:23.318Z,18.62
2019-02-26T21:30:53.904Z,17.27
2019-02-26T21:33:24.247Z,17.82
2019-02-26T21:35:54.939Z,16.23
2019-02-26T21:38:25.327Z,23.35
2019-02-26T21:40:55.682Z,22.55
2019-02-26T21:43:26.040Z,21.60
2019-02-26T21:45:57.446Z,19.55
2019-02-26T21:48:27.803Z,20.80
2019-02-26T21:50:58.147Z,20.60
2019-02-26T21:53:28.501Z,20.23
2019-02-26T21:55:58.846Z,20.35
2019-02-26T21:58:29.210Z,22.75
2019-02-26T22:00:59.605Z,20.02
2019-02-26T22:03:29.984Z,20.85
2019-02-26T22:06:05.245Z,19.25
2019-02-26T22:08:32.432Z,17.62
2019-02-26T22:11:02.788Z,21.20
2019-02-26T22:13:33.114Z,16.73
2019-02-26T22:16:03.659Z,23.35
2019-02-26T22:18:34.379Z,18.25
2019-02-26T22:21:04.716Z,19.82
2019-02-26T22:23:35.056Z,19.00
2019-02-26T22:26:05.463Z,22.10
2019-02-26T22:28:35.819Z,19.60
2019-02-26T22:31:06.157Z,21.42
2019-02-26T22:33:36.508Z,16.60
2019-02-26T22:36:06.841Z,18.35
2019-02-26T22:38:37.186Z,19.32
2019-02-26T22:41:07.530Z,19.62
2019-02-26T22:43:37.875Z,19.75
2019-02-26T22:46:08.212Z,21.50
2019-02-26T22:48:38.563Z,19.48
2019-02-26T22:51:09.871Z,19.37
2019-02-26T22:53:40.217Z,18.15
2019-02-26T22:56:10.577Z,19.05
2019-02-26T22:58:40.925Z,19.65
2019-02-26T23:01:17.895Z,19.12
2019-02-26T23:03:49.861Z,21.90
2019-02-26T23:06:20.269Z,18.77
2019-02-26T23:08:50.687Z,20.05
2019-02-26T23:11:21.669Z,18.98
2019-02-26T23:13:54.211Z,20.10
2019-02-26T23:16:25.333Z,19.90
2019-02-26T23:18:55.820Z,20.08
2019-02-26T23:21:26.157Z,22.13
2019-02-26T23:23:57.027Z,21.12
2019-02-26T23:26:27.571Z,21.95
2019-02-26T23:28:59.237Z,22.20
2019-02-26T23:31:32.748Z,22.30
2019-02-26T23:34:02.323Z,21.00
2019-02-26T23:36:32.666Z,20.05
2019-02-26T23:39:04.537Z,21.48
2019-02-26T23:41:36.871Z,20.62
2019-02-26T23:44:07.198Z,19.82
2019-02-26T23:46:38.066Z,25.57
2019-02-26T23:49:08.467Z,20.82
2019-02-26T23:51:38.804Z,21.17
2019-02-26T23:54:09.145Z,21.10
2019-02-26T23:56:39.485Z,20.40
2019-02-26T23:59:10.787Z,20.02
